createdAt,value
2023-04-20T00:00:36.785Z,9.07
2023-04-20T00:03:07.412Z,6.40
2023-04-20T00:05:35.452Z,7.18
2023-04-20T00:08:03.418Z,7.90
2023-04-20T00:10:31.184Z,5.85
2023-04-20T00:12:58.870Z,5.00
2023-04-20T00:15:26.524Z,10.45
2023-04-20T00:17:54.276Z,5.45
2023-04-20T00:20:23.456Z,7.32
2023-04-20T00:22:51.246Z,5.43
2023-04-20T00:25:19.090Z,8.57
2023-04-20T00:27:46.875Z,4.57
2023-04-20T00:30:15.541Z,7.40
2023-04-20T00:32:43.240Z,5.07
2023-04-20T00:35:11.295Z,7.05
2023-04-20T00:37:40.426Z,7.28
2023-04-20T00:40:09.712Z,6.90
2023-04-20T00:42:40.585Z,4.15
2023-04-20T00:45:09.491Z,6.32
2023-04-20T00:47:37.270Z,6.03
2023-04-20T00:50:05.650Z,6.40
2023-04-20T00:52:33.705Z,9.52
2023-04-20T00:55:03.419Z,5.45
2023-04-20T00:57:32.134Z,7.88
2023-04-20T00:59:59.878Z,8.93
2023-04-20T01:02:27.844Z,8.40
2023-04-20T01:04:56.340Z,5.90
2023-04-20T01:07:24.055Z,7.53
2023-04-20T01:09:51.677Z,9.98
2023-04-20T01:12:20.817Z,7.72
2023-04-20T01:14:48.592Z,4.70
2023-04-20T01:17:17.755Z,5.75
2023-04-20T01:19:45.785Z,5.80
2023-04-20T01:22:17.516Z,7.72
2023-04-20T01:24:45.525Z,9.65
2023-04-20T01:27:13.570Z,5.35
2023-04-20T01:29:41.509Z,6.93
2023-04-20T01:32:09.281Z,5.68
2023-04-20T01:34:37.020Z,6.60
2023-04-20T01:37:08.140Z,6.43
2023-04-20T01:39:38.776Z,5.13
2023-04-20T01:42:06.901Z,10.25
2023-04-20T01:44:34.686Z,5.72
2023-04-20T01:47:02.401Z,8.77
2023-04-20T01:49:30.182Z,5.50
2023-04-20T01:51:57.873Z,4.72
2023-04-20T01:54:25.607Z,8.52
2023-04-20T01:56:54.650Z,6.85
2023-04-20T01:59:22.356Z,6.00
2023-04-20T02:01:50.084Z,6.38
2023-04-20T02:04:18.146Z,5.40
2023-04-20T02:06:46.018Z,6.75
2023-04-20T02:09:13.735Z,7.40
2023-04-20T02:11:41.417Z,6.65
2023-04-20T02:14:10.542Z,8.43
2023-04-20T02:16:38.627Z,10.50
2023-04-20T02:19:06.856Z,6.05
2023-04-20T02:21:34.525Z,7.35
2023-04-20T02:24:02.183Z,7.40
2023-04-20T02:26:29.900Z,7.25
2023-04-20T02:28:57.587Z,6.43
2023-04-20T02:31:26.743Z,6.93
2023-04-20T02:33:54.459Z,6.32
2023-04-20T02:36:22.216Z,5.88
2023-04-20T02:38:50.001Z,7.40
2023-04-20T02:41:17.770Z,7.88
2023-04-20T02:43:45.491Z,7.20
2023-04-20T02:46:13.259Z,5.93
2023-04-20T02:48:42.904Z,5.45
2023-04-20T02:51:10.622Z,9.15
2023-04-20T02:53:38.499Z,6.28
2023-04-20T02:56:06.552Z,11.27
2023-04-20T02:58:34.349Z,10.68
2023-04-20T03:01:02.570Z,7.20
2023-04-20T03:03:30.643Z,6.38
2023-04-20T03:05:59.985Z,6.10
2023-04-20T03:08:27.673Z,6.43
2023-04-20T03:10:55.325Z,9.82
2023-04-20T03:13:23.006Z,8.60
2023-04-20T03:15:50.683Z,7.97
2023-04-20T03:18:18.410Z,8.55
2023-04-20T03:20:46.171Z,6.15
2023-04-20T03:23:15.256Z,8.50
2023-04-20T03:25:43.668Z,7.40
2023-04-20T03:28:11.367Z,7.45
2023-04-20T03:30:39.139Z,6.15
2023-04-20T03:33:06.879Z,7.93
2023-04-20T03:35:34.608Z,10.40
2023-04-20T03:38:02.382Z,7.65
2023-04-20T03:40:31.426Z,7.32
2023-04-20T03:42:59.094Z,9.15
2023-04-20T03:45:26.808Z,6.90
2023-04-20T03:47:54.733Z,6.88
2023-04-20T03:50:22.510Z,9.57
2023-04-20T03:52:50.323Z,11.23
2023-04-20T03:55:18.113Z,9.45
2023-04-20T03:57:47.170Z,9.20
2023-04-20T04:00:16.470Z,11.38
2023-04-20T04:02:44.395Z,8.30
2023-04-20T04:05:12.252Z,8.38
2023-04-20T04:07:40.008Z,9.32
2023-04-20T04:10:08.823Z,7.80
2023-04-20T04:12:36.499Z,12.32
2023-04-20T04:15:06.523Z,8.63
2023-04-20T04:17:34.263Z,7.78
2023-04-20T04:20:01.971Z,7.07
2023-04-20T04:22:30.513Z,8.55
2023-04-20T04:24:58.325Z,10.95
2023-04-20T04:27:26.010Z,7.35
2023-04-20T04:29:54.374Z,10.93
2023-04-20T04:32:24.380Z,10.65
2023-04-20T04:34:53.021Z,9.80
2023-04-20T04:37:20.902Z,11.52
2023-04-20T04:39:48.800Z,7.78
2023-04-20T04:42:16.650Z,8.05
2023-04-20T04:44:45.603Z,10.85
2023-04-20T04:47:14.260Z,6.60
2023-04-20T04:49:43.359Z,12.45
2023-04-20T04:52:11.140Z,16.17
2023-04-20T04:54:38.983Z,9.52
2023-04-20T04:57:06.816Z,7.43
2023-04-20T04:59:34.536Z,7.95
2023-04-20T05:02:02.252Z,8.98
2023-04-20T05:04:30.269Z,7.80
2023-04-20T05:06:59.491Z,7.47
2023-04-20T05:09:33.273Z,11.32
2023-04-20T05:12:01.494Z,10.05
2023-04-20T05:14:29.153Z,7.85
2023-04-20T05:16:56.773Z,8.15
2023-04-20T05:19:24.488Z,7.57
2023-04-20T05:21:52.342Z,14.77
2023-04-20T05:24:21.438Z,7.43
2023-04-20T05:26:49.108Z,10.23
2023-04-20T05:29:17.761Z,9.55
2023-04-20T05:31:46.027Z,8.90
2023-04-20T05:34:13.800Z,8.20
2023-04-20T05:36:41.580Z,8.90
2023-04-20T05:39:10.519Z,9.13
2023-04-20T05:41:39.848Z,16.92
2023-04-20T05:44:07.536Z,10.90
2023-04-20T05:46:35.266Z,7.03
2023-04-20T05:49:03.022Z,10.18
2023-04-20T05:51:33.912Z,9.55
2023-04-20T05:54:01.686Z,8.57
2023-04-20T05:56:29.488Z,10.57
2023-04-20T05:58:59.345Z,10.77
2023-04-20T06:01:27.065Z,7.90
2023-04-20T06:03:54.909Z,8.02
2023-04-20T06:06:22.848Z,10.57
2023-04-20T06:08:50.984Z,8.40
2023-04-20T06:11:18.745Z,8.43
2023-04-20T06:13:46.571Z,11.27
2023-04-20T06:16:15.823Z,12.05
2023-04-20T06:18:43.556Z,7.88
2023-04-20T06:21:11.742Z,11.27
2023-04-20T06:23:39.528Z,9.77
2023-04-20T06:26:08.895Z,8.82
2023-04-20T06:28:37.581Z,12.60
2023-04-20T06:31:05.554Z,14.43
2023-04-20T06:33:35.653Z,10.07
2023-04-20T06:36:03.387Z,14.15
2023-04-20T06:38:31.409Z,8.40
2023-04-20T06:41:02.052Z,12.10
2023-04-20T06:43:30.289Z,11.90
2023-04-20T06:45:58.083Z,10.02
2023-04-20T06:48:32.063Z,12.20
2023-04-20T06:51:02.292Z,11.50
2023-04-20T06:53:30.107Z,12.80
2023-04-20T06:55:58.348Z,19.55
2023-04-20T06:58:26.024Z,10.88
2023-04-20T07:00:53.782Z,10.48
2023-04-20T07:03:21.808Z,11.73
2023-04-20T07:05:49.621Z,9.95
2023-04-20T07:08:19.039Z,9.18
2023-04-20T07:10:46.802Z,9.10
2023-04-20T07:13:14.611Z,9.32
2023-04-20T07:15:43.609Z,8.10
2023-04-20T07:18:11.334Z,9.65
2023-04-20T07:20:39.160Z,10.82
2023-04-20T07:23:06.958Z,10.25
2023-04-20T07:25:36.165Z,10.98
2023-04-20T07:28:04.004Z,8.60
2023-04-20T07:30:32.263Z,13.48
2023-04-20T07:33:00.142Z,9.50
2023-04-20T07:35:27.913Z,9.85
2023-04-20T07:37:55.837Z,8.95
2023-04-20T07:40:23.819Z,9.43
2023-04-20T07:42:53.038Z,9.13
2023-04-20T07:45:21.904Z,11.35
2023-04-20T07:47:51.714Z,9.90
2023-04-20T07:50:19.551Z,14.30
2023-04-20T07:52:47.570Z,8.93
2023-04-20T07:55:17.315Z,7.93
2023-04-20T07:57:45.320Z,8.13
2023-04-20T08:00:16.050Z,11.35
2023-04-20T08:02:44.040Z,8.57
2023-04-20T08:05:12.427Z,9.40
2023-04-20T08:07:40.768Z,10.23
2023-04-20T08:10:10.594Z,8.73
2023-04-20T08:12:40.741Z,8.80
2023-04-20T08:15:10.118Z,8.80
2023-04-20T08:17:39.324Z,11.27
2023-04-20T08:20:10.792Z,7.43
2023-04-20T08:22:39.561Z,9.27
2023-04-20T08:25:09.272Z,7.85
2023-04-20T08:27:37.059Z,8.30
2023-04-20T08:30:05.561Z,11.35
2023-04-20T08:32:33.504Z,11.25
2023-04-20T08:35:02.846Z,9.05
2023-04-20T08:37:32.660Z,9.20
2023-04-20T08:40:00.918Z,14.50
2023-04-20T08:42:28.699Z,11.18
2023-04-20T08:44:56.518Z,10.93
2023-04-20T08:47:25.228Z,9.48
2023-04-20T08:49:55.705Z,8.02
2023-04-20T08:52:24.829Z,7.55
2023-04-20T08:54:56.948Z,11.27
2023-04-20T08:57:25.857Z,12.60
2023-04-20T08:59:53.776Z,6.75
2023-04-20T09:02:22.014Z,11.55
2023-04-20T09:04:50.138Z,10.57
2023-04-20T09:07:19.280Z,10.38
2023-04-20T09:09:58.950Z,8.77
2023-04-20T09:12:27.951Z,6.95
2023-04-20T09:14:55.991Z,9.73
2023-04-20T09:17:33.906Z,11.13
2023-04-20T09:20:02.599Z,8.98
2023-04-20T09:22:32.091Z,13.02
2023-04-20T09:25:01.631Z,8.38
2023-04-20T09:27:29.327Z,6.82
2023-04-20T09:30:01.193Z,14.00
2023-04-20T09:32:29.592Z,10.83
2023-04-20T09:34:57.684Z,9.00
2023-04-20T09:37:25.722Z,8.85
2023-04-20T09:40:00.248Z,11.25
2023-04-20T09:42:30.530Z,8.23
2023-04-20T09:44:59.103Z,8.13
2023-04-20T09:47:27.370Z,8.85
2023-04-20T09:49:56.369Z,8.27
2023-04-20T09:52:27.377Z,10.75
2023-04-20T09:54:56.136Z,13.48
2023-04-20T09:57:26.093Z,7.90
2023-04-20T09:59:56.483Z,10.23
2023-04-20T10:02:24.362Z,9.95
2023-04-20T10:04:56.318Z,13.55
2023-04-20T10:07:25.976Z,8.43
2023-04-20T10:10:05.008Z,7.97
2023-04-20T10:12:33.244Z,10.57
2023-04-20T10:15:02.326Z,7.72
2023-04-20T10:17:34.385Z,7.60
2023-04-20T10:20:02.226Z,7.47
2023-04-20T10:22:33.085Z,7.35
2023-04-20T10:25:01.254Z,7.65
2023-04-20T10:27:32.126Z,8.25
2023-04-20T10:30:11.737Z,9.25
2023-04-20T10:32:39.454Z,7.03
2023-04-20T10:35:08.836Z,8.55
2023-04-20T10:37:37.252Z,9.77
2023-04-20T10:40:07.740Z,8.65
2023-04-20T10:42:43.461Z,7.22
2023-04-20T10:45:13.115Z,11.32
2023-04-20T10:47:41.713Z,7.78
2023-04-20T10:50:11.159Z,9.88
2023-04-20T10:52:40.234Z,8.55
2023-04-20T10:55:19.307Z,8.52
2023-04-20T10:57:46.996Z,7.13
2023-04-20T11:00:18.765Z,10.13
2023-04-20T11:02:51.179Z,6.77
2023-04-20T11:05:19.768Z,7.47
2023-04-20T11:07:54.589Z,7.00
2023-04-20T11:10:23.866Z,7.97
2023-04-20T11:12:52.086Z,7.72
2023-04-20T11:15:32.257Z,7.45
2023-04-20T11:18:07.950Z,6.88
2023-04-20T11:20:36.224Z,7.65
2023-04-20T11:23:05.956Z,11.82
2023-04-20T11:25:33.815Z,12.52
2023-04-20T11:28:08.631Z,7.05
2023-04-20T11:30:41.361Z,13.38
2023-04-20T11:33:09.738Z,7.07
2023-04-20T11:35:38.405Z,19.20
2023-04-20T11:38:06.333Z,14.80
2023-04-20T11:40:34.155Z,8.75
2023-04-20T11:43:02.180Z,5.60
2023-04-20T11:45:35.194Z,6.72
2023-04-20T11:48:06.359Z,8.10
2023-04-20T11:50:34.209Z,4.65
2023-04-20T11:53:02.331Z,8.10
2023-04-20T11:55:30.131Z,7.55
2023-04-20T11:57:57.886Z,9.07
2023-04-20T12:00:25.915Z,5.55
2023-04-20T12:02:53.938Z,9.57
2023-04-20T12:05:23.312Z,6.43
2023-04-20T12:07:51.237Z,7.18
2023-04-20T12:10:18.967Z,5.10
2023-04-20T12:12:46.890Z,9.02
2023-04-20T12:15:15.000Z,5.47
2023-04-20T12:17:43.032Z,8.50
2023-04-20T12:20:12.304Z,5.85
2023-04-20T12:22:42.007Z,4.85
2023-04-20T12:25:10.314Z,9.60
2023-04-20T12:27:38.398Z,6.53
2023-04-20T12:30:09.362Z,9.55
2023-04-20T12:32:37.302Z,7.60
2023-04-20T12:35:05.550Z,6.15
2023-04-20T12:37:33.734Z,10.05
2023-04-20T12:40:06.606Z,7.43
2023-04-20T12:42:34.556Z,7.88
2023-04-20T12:45:02.361Z,10.38
2023-04-20T12:47:30.643Z,9.80
2023-04-20T12:49:58.660Z,8.30
2023-04-20T12:52:26.705Z,6.10
2023-04-20T12:54:54.658Z,6.55
2023-04-20T12:57:23.996Z,8.30
2023-04-20T12:59:52.097Z,6.75
2023-04-20T13:02:20.317Z,7.75
2023-04-20T13:04:48.431Z,8.32
2023-04-20T13:07:16.269Z,13.70
2023-04-20T13:09:44.249Z,8.00
2023-04-20T13:12:12.598Z,8.32
2023-04-20T13:14:41.720Z,6.30
2023-04-20T13:17:09.812Z,6.60
2023-04-20T13:19:37.712Z,6.72
2023-04-20T13:22:06.665Z,10.25
2023-04-20T13:24:34.585Z,7.28
2023-04-20T13:27:02.498Z,6.80
2023-04-20T13:29:30.538Z,5.43
2023-04-20T13:31:59.806Z,5.85
2023-04-20T13:34:27.827Z,6.13
2023-04-20T13:36:55.947Z,5.85
2023-04-20T13:39:23.872Z,6.72
2023-04-20T13:41:51.765Z,6.18
2023-04-20T13:44:20.261Z,7.88
2023-04-20T13:46:49.015Z,9.35
2023-04-20T13:49:18.512Z,7.40
2023-04-20T13:51:46.292Z,8.40
2023-04-20T13:54:14.322Z,7.10
2023-04-20T13:56:42.301Z,7.72
2023-04-20T13:59:10.678Z,6.60
2023-04-20T14:01:38.954Z,7.05
2023-04-20T14:04:07.181Z,7.85
2023-04-20T14:06:36.492Z,7.03
2023-04-20T14:09:04.433Z,8.38
2023-04-20T14:11:32.666Z,8.10
2023-04-20T14:14:00.482Z,8.45
2023-04-20T14:16:28.624Z,9.43
2023-04-20T14:18:56.875Z,8.68
2023-04-20T14:21:24.667Z,11.48
2023-04-20T14:23:55.281Z,10.85
2023-04-20T14:26:23.154Z,8.90
2023-04-20T14:28:52.602Z,10.40
2023-04-20T14:31:20.742Z,8.15
2023-04-20T14:33:48.576Z,7.47
2023-04-20T14:36:16.272Z,6.80
2023-04-20T14:38:44.279Z,9.00
2023-04-20T14:41:13.563Z,8.73
2023-04-20T14:43:41.408Z,8.30
2023-04-20T14:46:09.890Z,7.13
2023-04-20T14:48:38.176Z,7.20
2023-04-20T14:51:06.390Z,11.13
2023-04-20T14:53:34.635Z,8.18
2023-04-20T14:56:03.261Z,8.30
2023-04-20T14:58:32.534Z,11.98
2023-04-20T15:01:00.809Z,7.88
2023-04-20T15:03:28.937Z,8.27
2023-04-20T15:06:01.389Z,8.07
2023-04-20T15:08:29.337Z,9.02
2023-04-20T15:10:57.423Z,6.97
2023-04-20T15:13:25.787Z,11.85
2023-04-20T15:15:55.477Z,6.30
2023-04-20T15:18:23.490Z,8.73
2023-04-20T15:20:52.336Z,7.05
2023-04-20T15:23:20.346Z,7.82
2023-04-20T15:25:48.312Z,8.73
2023-04-20T15:28:16.651Z,7.65
2023-04-20T15:30:44.791Z,7.25
2023-04-20T15:33:14.143Z,10.45
2023-04-20T15:35:42.244Z,7.72
2023-04-20T15:38:10.135Z,9.98
2023-04-20T15:40:38.768Z,6.15
2023-04-20T15:43:07.133Z,4.57
2023-04-20T15:45:35.051Z,7.32
2023-04-20T15:48:03.004Z,6.72
2023-04-20T15:50:32.253Z,4.88
2023-04-20T15:53:00.480Z,5.63
2023-04-20T15:55:29.157Z,8.35
2023-04-20T15:58:00.542Z,10.63
2023-04-20T16:00:28.672Z,6.50
2023-04-20T16:02:56.606Z,6.80
2023-04-20T16:05:24.910Z,6.32
2023-04-20T16:07:54.742Z,5.57
2023-04-20T16:10:23.679Z,8.10
2023-04-20T16:12:51.816Z,8.27
2023-04-20T16:15:20.098Z,7.45
2023-04-20T16:17:47.995Z,6.22
2023-04-20T16:20:16.065Z,5.72
2023-04-20T16:22:44.026Z,5.35
2023-04-20T16:25:22.495Z,5.38
2023-04-20T16:27:50.975Z,7.60
2023-04-20T16:30:18.931Z,7.43
2023-04-20T16:32:47.010Z,7.47
2023-04-20T16:35:15.050Z,6.78
2023-04-20T16:37:42.887Z,6.38
2023-04-20T16:40:11.613Z,6.30
2023-04-20T16:42:41.001Z,6.82
2023-04-20T16:45:09.482Z,6.70
2023-04-20T16:47:37.422Z,7.13
2023-04-20T16:50:07.639Z,6.63
2023-04-20T16:52:35.685Z,7.32
2023-04-20T16:55:04.004Z,7.85
2023-04-20T16:57:32.508Z,6.75
2023-04-20T17:00:01.824Z,6.13
2023-04-20T17:02:33.128Z,7.55
2023-04-20T17:05:01.271Z,7.80
2023-04-20T17:07:29.433Z,6.90
2023-04-20T17:09:57.427Z,6.10
2023-04-20T17:12:25.453Z,7.95
2023-04-20T17:14:53.359Z,6.72
2023-04-20T17:17:22.727Z,10.65
2023-04-20T17:19:50.651Z,9.77
2023-04-20T17:22:18.523Z,7.93
2023-04-20T17:24:46.472Z,7.47
2023-04-20T17:27:16.042Z,7.07
2023-04-20T17:29:44.961Z,6.65
2023-04-20T17:32:13.287Z,6.90
2023-04-20T17:34:48.156Z,7.50
2023-04-20T17:37:16.663Z,6.85
2023-04-20T17:39:44.831Z,8.25
2023-04-20T17:42:13.322Z,8.48
2023-04-20T17:44:41.423Z,9.23
2023-04-20T17:47:10.315Z,8.07
2023-04-20T17:49:41.194Z,7.95
2023-04-20T17:52:12.626Z,8.65
2023-04-20T17:54:40.566Z,10.57
2023-04-20T17:57:09.088Z,8.10
2023-04-20T17:59:37.032Z,8.32
2023-04-20T18:02:05.150Z,7.93
2023-04-20T18:04:33.456Z,11.38
2023-04-20T18:07:01.505Z,13.80
2023-04-20T18:09:30.819Z,17.65
2023-04-20T18:11:58.799Z,19.40
2023-04-20T18:14:27.197Z,15.52
2023-04-20T18:16:56.061Z,14.60
2023-04-20T18:19:23.904Z,10.10
2023-04-20T18:21:51.983Z,12.52
2023-04-20T18:24:20.046Z,10.90
2023-04-20T18:26:49.477Z,10.85
2023-04-20T18:29:17.414Z,10.20
2023-04-20T18:31:46.479Z,12.60
2023-04-20T18:34:16.194Z,11.23
2023-04-20T18:36:44.226Z,19.33
2023-04-20T18:39:12.017Z,13.98
2023-04-20T18:41:39.864Z,12.88
2023-04-20T18:44:09.146Z,16.02
2023-04-20T18:46:37.095Z,12.82
2023-04-20T18:49:04.928Z,12.88
2023-04-20T18:51:33.366Z,14.15
2023-04-20T18:54:01.369Z,10.05
2023-04-20T18:56:29.290Z,10.18
2023-04-20T18:58:59.246Z,10.02
2023-04-20T19:01:28.674Z,13.20
2023-04-20T19:03:56.917Z,10.40
2023-04-20T19:06:25.173Z,12.68
2023-04-20T19:08:53.061Z,11.73
2023-04-20T19:11:20.941Z,13.77
2023-04-20T19:13:48.804Z,11.82
2023-04-20T19:16:17.023Z,11.73
2023-04-20T19:18:48.384Z,12.95
2023-04-20T19:21:16.483Z,12.02
2023-04-20T19:23:44.519Z,12.93
2023-04-20T19:26:12.411Z,12.25
2023-04-20T19:28:40.754Z,12.77
2023-04-20T19:31:10.887Z,12.48
2023-04-20T19:33:38.959Z,11.98
2023-04-20T19:36:08.573Z,10.90
2023-04-20T19:38:38.671Z,14.35
2023-04-20T19:41:07.410Z,14.80
2023-04-20T19:43:36.301Z,13.52
2023-04-20T19:46:04.792Z,12.98
2023-04-20T19:48:32.664Z,17.15
2023-04-20T19:51:01.327Z,15.68
2023-04-20T19:53:30.722Z,17.00
2023-04-20T19:55:58.650Z,20.77
2023-04-20T19:58:26.576Z,16.92
2023-04-20T20:00:54.678Z,19.50
2023-04-20T20:03:23.289Z,17.20
2023-04-20T20:05:51.608Z,14.65
2023-04-20T20:08:19.460Z,15.88
2023-04-20T20:10:48.704Z,15.63
2023-04-20T20:13:16.905Z,16.98
2023-04-20T20:15:45.353Z,21.85
2023-04-20T20:18:14.316Z,14.25
2023-04-20T20:20:42.269Z,12.55
2023-04-20T20:23:10.291Z,14.32
2023-04-20T20:25:38.222Z,14.32
2023-04-20T20:28:07.525Z,15.00
2023-04-20T20:30:35.419Z,11.93
2023-04-20T20:33:03.858Z,13.13
2023-04-20T20:35:33.312Z,12.68
2023-04-20T20:38:01.379Z,14.32
2023-04-20T20:40:29.143Z,11.93
2023-04-20T20:42:57.513Z,13.70
2023-04-20T20:45:27.821Z,13.75
2023-04-20T20:47:55.730Z,11.98
2023-04-20T20:50:23.911Z,14.90
2023-04-20T20:52:51.783Z,12.07
2023-04-20T20:55:19.691Z,11.68
2023-04-20T20:57:47.703Z,12.57
2023-04-20T21:00:16.182Z,12.80
2023-04-20T21:02:45.861Z,11.25
2023-04-20T21:05:14.150Z,12.30
2023-04-20T21:07:42.465Z,10.65
2023-04-20T21:10:11.908Z,13.50
2023-04-20T21:12:39.980Z,12.98
2023-04-20T21:15:10.138Z,11.02
2023-04-20T21:17:37.965Z,11.88
2023-04-20T21:20:09.558Z,11.00
2023-04-20T21:22:37.587Z,10.90
2023-04-20T21:25:06.387Z,10.55
2023-04-20T21:27:34.335Z,13.05
2023-04-20T21:30:02.129Z,12.60
2023-04-20T21:32:30.064Z,11.40
2023-04-20T21:34:57.930Z,11.93
2023-04-20T21:37:27.172Z,11.63
2023-04-20T21:39:55.133Z,11.45
2023-04-20T21:42:22.907Z,13.10
2023-04-20T21:44:50.760Z,12.13
2023-04-20T21:47:18.784Z,11.60
2023-04-20T21:49:46.524Z,12.35
2023-04-20T21:52:14.310Z,11.85
2023-04-20T21:54:43.486Z,12.63
2023-04-20T21:57:11.346Z,12.38
2023-04-20T21:59:39.129Z,12.85
2023-04-20T22:02:07.133Z,11.93
2023-04-20T22:04:35.173Z,11.25
2023-04-20T22:07:03.160Z,11.00
2023-04-20T22:09:31.204Z,11.25
2023-04-20T22:12:02.051Z,11.48
2023-04-20T22:14:30.258Z,12.35
2023-04-20T22:16:58.028Z,11.43
2023-04-20T22:19:25.973Z,11.65
2023-04-20T22:21:53.897Z,12.63
2023-04-20T22:24:21.653Z,12.02
2023-04-20T22:26:49.475Z,10.70
2023-04-20T22:29:19.002Z,10.60
2023-04-20T22:31:47.149Z,11.30
2023-04-20T22:34:15.032Z,12.13
2023-04-20T22:36:42.763Z,15.35
2023-04-20T22:39:10.839Z,11.80
2023-04-20T22:41:38.706Z,10.65
2023-04-20T22:44:06.696Z,13.07
2023-04-20T22:46:35.868Z,12.82
2023-04-20T22:49:04.210Z,11.23
2023-04-20T22:51:31.946Z,11.63
2023-04-20T22:54:01.013Z,10.70
2023-04-20T22:56:29.465Z,14.27
2023-04-20T22:58:57.218Z,13.00
2023-04-20T23:01:25.286Z,11.88
2023-04-20T23:03:54.554Z,11.48
2023-04-20T23:06:22.814Z,12.48
2023-04-20T23:08:50.721Z,12.18
2023-04-20T23:11:18.874Z,13.07
2023-04-20T23:13:47.839Z,13.00
2023-04-20T23:16:15.637Z,11.20
2023-04-20T23:18:43.324Z,14.75
2023-04-20T23:21:13.870Z,14.75
2023-04-20T23:23:41.654Z,14.50
2023-04-20T23:26:09.671Z,13.15
2023-04-20T23:28:37.523Z,13.05
2023-04-20T23:31:05.468Z,14.43
2023-04-20T23:33:33.291Z,13.30
2023-04-20T23:36:01.034Z,12.57
2023-04-20T23:38:30.205Z,13.15
2023-04-20T23:40:57.964Z,13.95
2023-04-20T23:43:25.767Z,14.25
2023-04-20T23:45:53.570Z,14.23
2023-04-20T23:48:21.288Z,14.65
2023-04-20T23:50:49.827Z,13.75
2023-04-20T23:53:17.640Z,16.60
2023-04-20T23:55:51.782Z,17.27
2023-04-20T23:58:19.577Z,16.23
